Time,TemperatureF,DewpointF,PressureIn,WindDirection,WindDirectionDegrees,WindSpeedMPH,WindSpeedGustMPH,Humidity,HourlyPrecipIn,Conditions,Clouds,dailyrainin,SoftwareType,DateUTC
2013-06-01 00:00:00,78.4,71.8,30.06,NE,40,3.0,16.0,80,0.00,,,0.09,meteohub,2013-06-01 04:00:00,
2013-06-01 00:01:00,78.4,71.8,30.06,NE,51,6.0,16.0,80,0.00,,,0.09,meteohub,2013-06-01 04:01:00,
2013-06-01 00:02:00,78.4,71.8,30.06,East,80,11.0,16.0,80,0.00,,,0.09,meteohub,2013-06-01 04:02:00,
2013-06-01 00:03:00,78.4,72.1,30.06,East,88,3.0,16.0,81,0.00,,,0.09,meteohub,2013-06-01 04:03:00,
2013-06-01 00:08:00,78.4,72.1,30.06,ENE,62,5.0,16.0,81,0.00,,,0.00,meteohub,2013-06-01 04:08:00,
2013-06-01 00:13:00,78.3,72.0,30.06,ENE,63,8.0,16.0,81,0.00,,,0.00,meteohub,2013-06-01 04:13:00,
2013-06-01 00:18:00,78.3,72.0,30.06,NE,49,7.0,16.0,81,0.00,,,0.00,meteohub,2013-06-01 04:18:00,
2013-06-01 00:23:00,78.3,72.0,30.06,East,90,10.0,16.0,81,0.00,,,0.00,meteohub,2013-06-01 04:23:00,
2013-06-01 00:28:00,78.1,71.8,30.06,East,80,10.0,14.0,81,0.00,,,0.00,meteohub,2013-06-01 04:28:00,
2013-06-01 00:33:00,78.1,71.8,30.06,ENE,66,3.0,14.0,81,0.00,,,0.00,meteohub,2013-06-01 04:33:00,
2013-06-01 00:38:00,77.9,71.6,30.05,NE,38,3.0,17.0,81,0.00,,,0.00,meteohub,2013-06-01 04:38:00,
2013-06-01 00:43:00,77.9,72.0,30.05,ENE,67,9.0,17.0,82,0.00,,,0.00,meteohub,2013-06-01 04:43:00,
2013-06-01 00:48:00,77.7,71.8,30.05,ENE,64,3.0,13.0,82,0.00,,,0.00,meteohub,2013-06-01 04:48:00,
2013-06-01 00:53:00,77.5,71.2,30.05,ENE,76,7.0,13.0,81,0.00,,,0.00,meteohub,2013-06-01 04:53:00,
2013-06-01 00:59:00,77.5,71.6,30.05,ENE,69,8.0,13.0,82,0.00,,,0.00,meteohub,2013-06-01 04:59:00,
2013-06-01 01:04:00,77.5,71.6,30.05,ENE,63,2.0,13.0,82,0.00,,,0.00,meteohub,2013-06-01 05:04:00,
2013-06-01 01:09:00,77.5,71.2,30.05,ENE,76,7.0,13.0,81,0.00,,,0.00,meteohub,2013-06-01 05:09:00,
2013-06-01 01:14:00,77.5,71.6,30.05,ENE,64,3.0,13.0,82,0.00,,,0.00,meteohub,2013-06-01 05:14:00,
2013-06-01 01:19:00,77.5,71.6,30.05,ENE,69,4.0,13.0,82,0.00,,,0.00,meteohub,2013-06-01 05:19:00,
2013-06-01 01:24:00,77.5,71.6,30.05,NE,52,5.0,13.0,82,0.00,,,0.00,meteohub,2013-06-01 05:24:00,
2013-06-01 01:29:00,77.4,71.1,30.04,ENE,65,10.0,13.0,81,0.00,,,0.00,meteohub,2013-06-01 05:29:00,
2013-06-01 01:34:00,77.4,71.4,30.04,East,90,5.0,13.0,82,0.00,,,0.00,meteohub,2013-06-01 05:34:00,
2013-06-01 01:39:00,77.4,71.4,30.04,East,97,8.0,13.0,82,0.00,,,0.00,meteohub,2013-06-01 05:39:00,
2013-06-01 01:44:00,77.2,71.2,30.04,ENE,57,7.0,13.0,82,0.00,,,0.00,meteohub,2013-06-01 05:44:00,
2013-06-01 01:49:00,77.2,71.6,30.03,ENE,78,4.0,12.0,83,0.00,,,0.00,meteohub,2013-06-01 05:49:00,
2013-06-01 01:54:00,77.0,71.1,30.03,East,82,7.0,13.0,82,0.00,,,0.00,meteohub,2013-06-01 05:54:00,
2013-06-01 01:59:00,77.0,71.1,30.03,ENE,63,0.0,13.0,82,0.00,,,0.00,meteohub,2013-06-01 05:59:00,
2013-06-01 02:05:00,76.8,71.2,30.03,ENE,61,4.0,13.0,83,0.00,,,0.00,meteohub,2013-06-01 06:05:00,
2013-06-01 02:10:00,76.8,71.2,30.03,East,82,2.0,11.0,83,0.00,,,0.00,meteohub,2013-06-01 06:10:00,
2013-06-01 02:15:00,76.8,71.2,30.03,ENE,69,9.0,11.0,83,0.00,,,0.00,meteohub,2013-06-01 06:15:00,
2013-06-01 02:20:00,76.8,71.2,30.03,East,86,6.0,11.0,83,0.00,,,0.00,meteohub,2013-06-01 06:20:00,
2013-06-01 02:25:00,76.8,71.6,30.02,ENE,62,3.0,11.0,84,0.00,,,0.00,meteohub,2013-06-01 06:25:00,
2013-06-01 02:31:00,76.6,71.1,30.02,East,96,6.0,11.0,83,0.00,,,0.00,meteohub,2013-06-01 06:31:00,
2013-06-01 02:36:00,76.6,71.4,30.01,ENE,70,3.0,11.0,84,0.00,,,0.00,meteohub,2013-06-01 06:36:00,
2013-06-01 02:41:00,76.5,71.2,30.01,ENE,60,2.0,11.0,84,0.00,,,0.00,meteohub,2013-06-01 06:41:00,
2013-06-01 02:46:00,76.5,71.2,30.01,ENE,69,2.0,10.0,84,0.00,,,0.00,meteohub,2013-06-01 06:46:00,
2013-06-01 02:51:00,76.3,71.1,30.01,ENE,69,1.0,10.0,84,0.00,,,0.00,meteohub,2013-06-01 06:51:00,
2013-06-01 02:56:00,76.3,71.1,30.01,East,82,3.0,10.0,84,0.00,,,0.00,meteohub,2013-06-01 06:56:00,
2013-06-01 03:01:00,76.3,71.1,30.01,ENE,77,2.0,9.0,84,0.00,,,0.00,meteohub,2013-06-01 07:01:00,
2013-06-01 03:06:00,76.3,71.1,30.01,ENE,78,1.0,9.0,84,0.00,,,0.00,meteohub,2013-06-01 07:06:00,
2013-06-01 03:11:00,76.1,70.9,30.01,ENE,62,1.0,9.0,84,0.00,,,0.00,meteohub,2013-06-01 07:11:00,
2013-06-01 03:17:00,76.1,70.9,30.01,ENE,65,1.0,9.0,84,0.00,,,0.00,meteohub,2013-06-01 07:17:00,
2013-06-01 03:22:00,76.1,70.9,30.01,ENE,58,4.0,9.0,84,0.00,,,0.00,meteohub,2013-06-01 07:22:00,
2013-06-01 03:27:00,76.3,71.1,30.00,ENE,58,1.0,9.0,84,0.00,,,0.00,meteohub,2013-06-01 07:27:00,
2013-06-01 03:32:00,76.3,71.1,30.00,ENE,69,2.0,9.0,84,0.00,,,0.00,meteohub,2013-06-01 07:32:00,
2013-06-01 03:37:00,76.1,70.9,30.00,ENE,65,1.0,9.0,84,0.00,,,0.00,meteohub,2013-06-01 07:37:00,
2013-06-01 03:42:00,76.1,70.9,30.00,ENE,65,3.0,9.0,84,0.00,,,0.00,meteohub,2013-06-01 07:42:00,
2013-06-01 03:47:00,76.1,70.9,30.00,ENE,74,4.0,8.0,84,0.00,,,0.00,meteohub,2013-06-01 07:47:00,
2013-06-01 03:52:00,76.1,70.9,30.00,ENE,67,0.0,8.0,84,0.00,,,0.00,meteohub,2013-06-01 07:52:00,
2013-06-01 03:57:00,76.1,71.2,30.00,ENE,67,0.0,8.0,85,0.00,,,0.00,meteohub,2013-06-01 07:57:00,
2013-06-01 04:02:00,76.1,70.9,30.00,ENE,66,0.0,8.0,84,0.00,,,0.00,meteohub,2013-06-01 08:02:00,
2013-06-01 04:07:00,76.1,71.2,30.00,ENE,57,1.0,7.0,85,0.00,,,0.00,meteohub,2013-06-01 08:07:00,
2013-06-01 04:12:00,75.9,70.7,30.00,ENE,74,2.0,8.0,84,0.00,,,0.00,meteohub,2013-06-01 08:12:00,
2013-06-01 04:17:00,76.1,70.9,29.99,ENE,69,7.0,8.0,84,0.00,,,0.00,meteohub,2013-06-01 08:17:00,
2013-06-01 04:22:00,76.1,70.9,30.00,ENE,77,10.0,10.0,84,0.00,,,0.00,meteohub,2013-06-01 08:22:00,
2013-06-01 04:27:00,76.1,70.9,29.99,ENE,61,0.0,11.0,84,0.00,,,0.00,meteohub,2013-06-01 08:27:00,
2013-06-01 04:32:00,75.9,70.7,29.99,ENE,66,3.0,11.0,84,0.00,,,0.00,meteohub,2013-06-01 08:32:00,
2013-06-01 04:37:00,75.9,71.1,29.99,ENE,74,0.0,11.0,85,0.00,,,0.00,meteohub,2013-06-01 08:37:00,
2013-06-01 04:42:00,75.9,71.1,29.99,ENE,61,2.0,7.0,85,0.00,,,0.00,meteohub,2013-06-01 08:42:00,
2013-06-01 04:47:00,75.9,71.1,29.99,ENE,59,9.0,9.0,85,0.00,,,0.00,meteohub,2013-06-01 08:47:00,
2013-06-01 04:52:00,75.9,71.1,29.99,ENE,70,0.0,9.0,85,0.00,,,0.00,meteohub,2013-06-01 08:52:00,
2013-06-01 04:57:00,75.9,71.1,29.99,ENE,68,4.0,9.0,85,0.00,,,0.00,meteohub,2013-06-01 08:57:00,
2013-06-01 05:02:00,75.9,71.1,29.99,ENE,74,2.0,13.0,85,0.00,,,0.00,meteohub,2013-06-01 09:02:00,
2013-06-01 05:07:00,75.9,71.1,29.99,ENE,62,1.0,13.0,85,0.00,,,0.00,meteohub,2013-06-01 09:07:00,
2013-06-01 05:12:00,75.9,71.1,30.00,ENE,61,4.0,13.0,85,0.00,,,0.00,meteohub,2013-06-01 09:12:00,
2013-06-01 05:17:00,75.9,71.1,30.00,ENE,63,0.0,9.0,85,0.00,,,0.00,meteohub,2013-06-01 09:17:00,
2013-06-01 05:22:00,75.9,71.1,30.00,ENE,63,1.0,8.0,85,0.00,,,0.00,meteohub,2013-06-01 09:22:00,
2013-06-01 05:27:00,75.7,70.9,30.00,ENE,63,1.0,8.0,85,0.00,,,0.00,meteohub,2013-06-01 09:27:00,
2013-06-01 05:32:00,75.6,71.1,30.00,ENE,63,0.0,7.0,86,0.00,,,0.00,meteohub,2013-06-01 09:32:00,
2013-06-01 05:37:00,75.6,71.1,30.00,ENE,63,0.0,7.0,86,0.00,,,0.00,meteohub,2013-06-01 09:37:00,
2013-06-01 05:42:00,75.4,70.9,30.00,ENE,63,0.0,8.0,86,0.00,,,0.00,meteohub,2013-06-01 09:42:00,
2013-06-01 05:47:00,75.4,70.9,30.01,ENE,61,1.0,8.0,86,0.00,,,0.00,meteohub,2013-06-01 09:47:00,
2013-06-01 05:52:00,75.4,70.9,30.01,ENE,62,4.0,8.0,86,0.00,,,0.00,meteohub,2013-06-01 09:52:00,
2013-06-01 05:57:00,75.4,70.9,30.01,ENE,59,1.0,7.0,86,0.00,,,0.00,meteohub,2013-06-01 09:57:00,
2013-06-01 06:02:00,75.4,70.9,30.01,ENE,61,4.0,7.0,86,0.00,,,0.00,meteohub,2013-06-01 10:02:00,
2013-06-01 06:07:00,75.4,71.2,30.01,ENE,62,0.0,8.0,87,0.00,,,0.00,meteohub,2013-06-01 10:07:00,
2013-06-01 06:12:00,75.4,71.2,30.01,ENE,61,1.0,8.0,87,0.00,,,0.00,meteohub,2013-06-01 10:12:00,
2013-06-01 06:17:00,75.2,71.1,30.01,ENE,61,0.0,8.0,87,0.00,,,0.00,meteohub,2013-06-01 10:17:00,
2013-06-01 06:22:00,75.2,71.1,30.01,ENE,62,3.0,8.0,87,0.00,,,0.00,meteohub,2013-06-01 10:22:00,
2013-06-01 06:27:00,75.0,70.9,30.01,ENE,72,3.0,8.0,87,0.00,,,0.00,meteohub,2013-06-01 10:27:00,
2013-06-01 06:32:00,75.0,70.9,30.01,ENE,65,0.0,10.0,87,0.00,,,0.00,meteohub,2013-06-01 10:32:00,
2013-06-01 06:37:00,74.8,70.7,30.01,ENE,61,0.0,10.0,87,0.00,,,0.00,meteohub,2013-06-01 10:37:00,
2013-06-01 06:42:00,74.8,71.1,30.01,ENE,61,2.0,7.0,88,0.00,,,0.00,meteohub,2013-06-01 10:42:00,
2013-06-01 06:47:00,74.8,71.1,30.02,ENE,58,2.0,7.0,88,0.00,,,0.00,meteohub,2013-06-01 10:47:00,
2013-06-01 06:52:00,74.8,71.1,30.02,ENE,57,1.0,8.0,88,0.00,,,0.00,meteohub,2013-06-01 10:52:00,
2013-06-01 06:57:00,74.8,71.1,30.02,ENE,57,1.0,8.0,88,0.00,,,0.00,meteohub,2013-06-01 10:57:00,
2013-06-01 07:02:00,74.8,71.1,30.02,ENE,61,0.0,8.0,88,0.00,,,0.00,meteohub,2013-06-01 11:02:00,
2013-06-01 07:07:00,74.8,71.1,30.02,ENE,62,1.0,11.0,88,0.00,,,0.00,meteohub,2013-06-01 11:07:00,
2013-06-01 07:12:00,74.8,71.1,30.02,ENE,59,0.0,11.0,88,0.00,,,0.00,meteohub,2013-06-01 11:12:00,
2013-06-01 07:17:00,75.0,71.2,30.02,ENE,59,0.0,11.0,88,0.00,,,0.00,meteohub,2013-06-01 11:17:00,
2013-06-01 07:22:00,75.4,71.6,30.02,NE,55,1.0,10.0,88,0.00,,,0.00,meteohub,2013-06-01 11:22:00,
2013-06-01 07:27:00,75.6,71.8,30.02,NE,50,1.0,8.0,88,0.00,,,0.00,meteohub,2013-06-01 11:27:00,
2013-06-01 07:32:00,75.6,71.4,30.02,NE,55,4.0,8.0,87,0.00,,,0.00,meteohub,2013-06-01 11:32:00,
2013-06-01 07:37:00,75.7,71.6,30.02,ENE,70,3.0,9.0,87,0.00,,,0.00,meteohub,2013-06-01 11:37:00,
2013-06-01 07:42:00,75.7,71.6,30.02,ENE,63,0.0,9.0,87,0.00,,,0.00,meteohub,2013-06-01 11:42:00,
2013-06-01 07:47:00,75.9,71.8,30.02,NE,56,1.0,12.0,87,0.00,,,0.00,meteohub,2013-06-01 11:47:00,
2013-06-01 07:52:00,76.1,71.6,30.03,ENE,69,2.0,12.0,86,0.00,,,0.00,meteohub,2013-06-01 11:52:00,
2013-06-01 07:57:00,76.3,71.8,30.03,ENE,68,0.0,12.0,86,0.00,,,0.00,meteohub,2013-06-01 11:57:00,
2013-06-01 08:02:00,76.3,72.1,30.03,ENE,65,4.0,8.0,87,0.00,,,0.00,meteohub,2013-06-01 12:02:00,
2013-06-01 08:07:00,76.5,72.0,30.04,ENE,59,0.0,9.0,86,0.00,,,0.00,meteohub,2013-06-01 12:07:00,
2013-06-01 08:12:00,76.6,72.1,30.04,ENE,69,1.0,10.0,86,0.00,,,0.00,meteohub,2013-06-01 12:12:00,
2013-06-01 08:17:00,76.8,72.3,30.04,ENE,62,1.0,10.0,86,0.00,,,0.00,meteohub,2013-06-01 12:17:00,
2013-06-01 08:22:00,77.2,72.7,30.04,ENE,64,1.0,12.0,86,0.00,,,0.00,meteohub,2013-06-01 12:22:00,
2013-06-01 08:27:00,77.2,72.3,30.04,ENE,58,1.0,12.0,85,0.00,,,0.00,meteohub,2013-06-01 12:27:00,
2013-06-01 08:32:00,77.4,72.1,30.04,ENE,68,1.0,12.0,84,0.00,,,0.00,meteohub,2013-06-01 12:32:00,
2013-06-01 08:37:00,77.5,72.3,30.04,ENE,71,0.0,9.0,84,0.00,,,0.00,meteohub,2013-06-01 12:37:00,
2013-06-01 08:42:00,77.7,72.5,30.03,ENE,77,1.0,9.0,84,0.00,,,0.00,meteohub,2013-06-01 12:42:00,
2013-06-01 08:47:00,78.3,73.0,30.04,ENE,65,2.0,9.0,84,0.00,,,0.00,meteohub,2013-06-01 12:47:00,
2013-06-01 08:52:00,78.4,73.2,30.04,ENE,65,3.0,10.0,84,0.00,,,0.00,meteohub,2013-06-01 12:52:00,
2013-06-01 08:57:00,78.6,73.0,30.04,ENE,64,7.0,10.0,83,0.00,,,0.00,meteohub,2013-06-01 12:57:00,
2013-06-01 09:02:00,79.0,73.0,30.04,ENE,73,8.0,10.0,82,0.00,,,0.00,meteohub,2013-06-01 13:02:00,
2013-06-01 09:07:00,79.3,73.4,30.04,NE,53,1.0,11.0,82,0.00,,,0.00,meteohub,2013-06-01 13:07:00,
2013-06-01 09:12:00,79.5,73.6,30.04,ENE,64,3.0,11.0,82,0.00,,,0.00,meteohub,2013-06-01 13:12:00,
2013-06-01 09:17:00,79.9,73.9,30.04,NE,48,2.0,11.0,82,0.00,,,0.00,meteohub,2013-06-01 13:17:00,
2013-06-01 09:22:00,79.9,73.6,30.04,NE,45,4.0,10.0,81,0.00,,,0.00,meteohub,2013-06-01 13:22:00,
2013-06-01 09:27:00,80.1,73.8,30.04,East,83,6.0,14.0,81,0.00,,,0.00,meteohub,2013-06-01 13:27:00,
2013-06-01 09:32:00,80.2,73.9,30.04,ENE,58,9.0,14.0,81,0.00,,,0.00,meteohub,2013-06-01 13:32:00,
2013-06-01 09:37:00,80.4,73.8,30.04,ENE,78,4.0,14.0,80,0.00,,,0.00,meteohub,2013-06-01 13:37:00,
2013-06-01 09:42:00,80.8,73.9,30.04,ENE,71,5.0,13.0,80,0.00,,,0.00,meteohub,2013-06-01 13:42:00,
2013-06-01 09:47:00,80.8,73.6,30.04,East,85,7.0,11.0,79,0.00,,,0.00,meteohub,2013-06-01 13:47:00,
2013-06-01 09:52:00,81.0,73.8,30.04,ENE,76,5.0,11.0,79,0.00,,,0.00,meteohub,2013-06-01 13:52:00,
2013-06-01 09:57:00,81.0,73.8,30.04,NE,49,6.0,11.0,79,0.00,,,0.00,meteohub,2013-06-01 13:57:00,
2013-06-01 10:02:00,81.3,74.1,30.04,East,95,9.0,14.0,79,0.00,,,0.00,meteohub,2013-06-01 14:02:00,
2013-06-01 10:07:00,81.1,74.3,30.04,ENE,63,7.0,14.0,80,0.00,,,0.00,meteohub,2013-06-01 14:07:00,
2013-06-01 10:12:00,81.3,74.5,30.04,NE,53,2.0,14.0,80,0.00,,,0.00,meteohub,2013-06-01 14:12:00,
2013-06-01 10:17:00,81.9,74.7,30.04,East,99,6.0,14.0,79,0.00,,,0.00,meteohub,2013-06-01 14:17:00,
2013-06-01 10:22:00,82.0,74.1,30.04,East,86,11.0,14.0,77,0.00,,,0.00,meteohub,2013-06-01 14:22:00,
2013-06-01 10:27:00,82.0,74.5,30.04,NE,42,6.0,15.0,78,0.00,,,0.00,meteohub,2013-06-01 14:27:00,
2013-06-01 10:32:00,82.0,74.1,30.04,ENE,75,10.0,15.0,77,0.00,,,0.00,meteohub,2013-06-01 14:32:00,
2013-06-01 10:37:00,82.2,74.3,30.04,ESE,120,11.0,15.0,77,0.00,,,0.00,meteohub,2013-06-01 14:37:00,
2013-06-01 10:42:00,82.8,74.5,30.04,ENE,68,7.0,14.0,76,0.00,,,0.00,meteohub,2013-06-01 14:42:00,
2013-06-01 10:47:00,82.9,74.7,30.04,ENE,74,10.0,13.0,76,0.00,,,0.00,meteohub,2013-06-01 14:47:00,
2013-06-01 10:52:00,83.5,75.0,30.04,NE,49,6.0,13.0,76,0.00,,,0.00,meteohub,2013-06-01 14:52:00,
2013-06-01 10:57:00,83.5,74.7,30.04,ENE,75,8.0,13.0,75,0.00,,,0.00,meteohub,2013-06-01 14:57:00,
2013-06-01 11:02:00,83.8,75.0,30.03,East,90,9.0,13.0,75,0.00,,,0.00,meteohub,2013-06-01 15:02:00,
2013-06-01 11:07:00,84.4,75.2,30.03,NE,51,5.0,12.0,74,0.00,,,0.00,meteohub,2013-06-01 15:07:00,
2013-06-01 11:12:00,84.7,75.6,30.03,ENE,65,8.0,12.0,74,0.00,,,0.00,meteohub,2013-06-01 15:12:00,
2013-06-01 11:17:00,84.6,75.0,30.03,East,81,7.0,12.0,73,0.00,,,0.00,meteohub,2013-06-01 15:17:00,
2013-06-01 11:22:00,83.7,74.5,30.03,ENE,66,7.0,16.0,74,0.00,,,0.00,meteohub,2013-06-01 15:22:00,
2013-06-01 11:27:00,83.5,74.7,30.03,NE,56,5.0,16.0,75,0.00,,,0.00,meteohub,2013-06-01 15:27:00,
2013-06-01 11:32:00,83.8,75.0,30.03,ENE,74,4.0,16.0,75,0.00,,,0.00,meteohub,2013-06-01 15:32:00,
2013-06-01 11:37:00,84.2,75.0,30.03,East,89,6.0,15.0,74,0.00,,,0.00,meteohub,2013-06-01 15:37:00,
2013-06-01 11:42:00,84.9,75.2,30.03,East,93,6.0,15.0,73,0.00,,,0.00,meteohub,2013-06-01 15:42:00,
2013-06-01 11:47:00,85.3,75.6,30.03,ENE,59,3.0,15.0,73,0.00,,,0.00,meteohub,2013-06-01 15:47:00,
2013-06-01 11:52:00,85.6,75.6,30.03,ENE,66,3.0,11.0,72,0.00,,,0.00,meteohub,2013-06-01 15:52:00,
2013-06-01 11:57:00,85.6,75.6,30.03,ENE,74,8.0,11.0,72,0.00,,,0.00,meteohub,2013-06-01 15:57:00,
2013-06-01 12:02:00,85.8,75.7,30.03,ENE,78,7.0,11.0,72,0.00,,,0.00,meteohub,2013-06-01 16:02:00,
2013-06-01 12:07:00,85.5,75.4,30.03,NNE,19,6.0,12.0,72,0.00,,,0.00,meteohub,2013-06-01 16:07:00,
2013-06-01 12:12:00,85.3,75.2,30.03,East,83,8.0,12.0,72,0.00,,,0.00,meteohub,2013-06-01 16:12:00,
2013-06-01 12:17:00,84.9,75.2,30.03,ENE,62,3.0,11.0,73,0.00,,,0.00,meteohub,2013-06-01 16:17:00,
2013-06-01 12:22:00,84.9,75.2,30.03,ENE,59,3.0,11.0,73,0.00,,,0.00,meteohub,2013-06-01 16:22:00,
2013-06-01 12:27:00,84.9,75.2,30.03,ESE,111,9.0,10.0,73,0.00,,,0.00,meteohub,2013-06-01 16:27:00,
2013-06-01 12:32:00,84.7,75.2,30.03,ENE,66,9.0,13.0,73,0.00,,,0.00,meteohub,2013-06-01 16:32:00,
2013-06-01 12:37:00,84.9,75.2,30.03,East,96,3.0,13.0,73,0.00,,,0.00,meteohub,2013-06-01 16:37:00,
2013-06-01 12:42:00,85.6,75.6,30.03,East,82,2.0,13.0,72,0.00,,,0.00,meteohub,2013-06-01 16:42:00,
2013-06-01 12:47:00,86.7,75.7,30.03,East,82,6.0,11.0,70,0.00,,,0.00,meteohub,2013-06-01 16:47:00,
2013-06-01 12:52:00,86.7,75.4,30.03,NE,55,3.0,10.0,69,0.00,,,0.00,meteohub,2013-06-01 16:52:00,
2013-06-01 12:57:00,86.9,75.9,30.03,East,86,5.0,9.0,70,0.00,,,0.00,meteohub,2013-06-01 16:57:00,
2013-06-01 13:02:00,87.1,75.7,30.03,ENE,71,3.0,10.0,69,0.00,,,0.00,meteohub,2013-06-01 17:02:00,
2013-06-01 13:07:00,87.3,75.9,30.02,East,81,1.0,10.0,69,0.00,,,0.00,meteohub,2013-06-01 17:07:00,
2013-06-01 13:12:00,87.6,75.7,30.02,ENE,69,0.0,8.0,68,0.00,,,0.00,meteohub,2013-06-01 17:12:00,
2013-06-01 13:17:00,88.0,76.1,30.03,ENE,78,1.0,7.0,68,0.00,,,0.00,meteohub,2013-06-01 17:17:00,
2013-06-01 13:22:00,88.0,76.1,30.03,ENE,60,7.0,7.0,68,0.00,,,0.00,meteohub,2013-06-01 17:22:00,
2013-06-01 13:27:00,87.8,75.4,30.02,ENE,71,3.0,8.0,67,0.00,,,0.00,meteohub,2013-06-01 17:27:00,
2013-06-01 13:32:00,88.0,75.6,30.02,ENE,76,0.0,8.0,67,0.00,,,0.00,meteohub,2013-06-01 17:32:00,
2013-06-01 13:37:00,88.3,75.9,30.02,ENE,76,4.0,8.0,67,0.00,,,0.00,meteohub,2013-06-01 17:37:00,
2013-06-01 13:42:00,88.5,75.7,30.02,East,82,6.0,6.0,66,0.00,,,0.00,meteohub,2013-06-01 17:42:00,
2013-06-01 13:48:00,88.3,75.6,30.02,East,93,7.0,7.0,66,0.00,,,0.00,meteohub,2013-06-01 17:48:00,
2013-06-01 13:53:00,88.0,75.6,30.01,East,91,5.0,7.0,67,0.00,,,0.00,meteohub,2013-06-01 17:53:00,
2013-06-01 13:58:00,88.3,75.9,30.01,East,90,3.0,7.0,67,0.00,,,0.00,meteohub,2013-06-01 17:58:00,
2013-06-01 14:03:00,89.1,76.6,30.01,East,87,0.0,7.0,67,0.00,,,0.00,meteohub,2013-06-01 18:03:00,
2013-06-01 14:08:00,89.8,76.5,30.01,East,94,3.0,7.0,65,0.00,,,0.00,meteohub,2013-06-01 18:08:00,
2013-06-01 14:13:00,90.0,76.6,30.01,East,90,0.0,7.0,65,0.00,,,0.00,meteohub,2013-06-01 18:13:00,
2013-06-01 14:18:00,90.1,76.3,30.00,East,90,3.0,9.0,64,0.00,,,0.00,meteohub,2013-06-01 18:18:00,
2013-06-01 14:23:00,90.0,76.1,30.00,East,89,6.0,9.0,64,0.00,,,0.00,meteohub,2013-06-01 18:23:00,
2013-06-01 14:28:00,90.1,76.3,30.00,East,81,3.0,8.0,64,0.00,,,0.00,meteohub,2013-06-01 18:28:00,
2013-06-01 14:33:00,90.7,76.8,30.00,East,84,3.0,8.0,64,0.00,,,0.00,meteohub,2013-06-01 18:33:00,
2013-06-01 14:38:00,90.5,76.6,30.00,East,84,1.0,8.0,64,0.00,,,0.00,meteohub,2013-06-01 18:38:00,
2013-06-01 14:43:00,90.5,76.1,29.99,East,84,1.0,7.0,63,0.00,,,0.00,meteohub,2013-06-01 18:43:00,
2013-06-01 14:48:00,90.7,76.3,29.99,East,84,2.0,7.0,63,0.00,,,0.00,meteohub,2013-06-01 18:48:00,
2013-06-01 14:53:00,90.9,76.5,29.99,East,84,2.0,5.0,63,0.00,,,0.00,meteohub,2013-06-01 18:53:00,
2013-06-01 14:58:00,91.4,76.5,29.99,East,84,0.0,3.0,62,0.00,,,0.00,meteohub,2013-06-01 18:58:00,
2013-06-01 15:04:00,91.8,75.9,29.99,East,84,2.0,3.0,60,0.00,,,0.00,meteohub,2013-06-01 19:04:00,
2013-06-01 15:09:00,91.6,76.6,29.99,East,84,1.0,5.0,62,0.00,,,0.00,meteohub,2013-06-01 19:09:00,
2013-06-01 15:14:00,91.0,76.6,29.99,East,84,1.0,5.0,63,0.00,,,0.00,meteohub,2013-06-01 19:14:00,
2013-06-01 15:19:00,90.7,76.3,29.99,East,84,2.0,5.0,63,0.00,,,0.00,meteohub,2013-06-01 19:19:00,
2013-06-01 15:24:00,90.1,75.9,29.99,East,84,0.0,5.0,63,0.00,,,0.00,meteohub,2013-06-01 19:24:00,
2013-06-01 15:29:00,89.4,74.7,29.99,East,84,1.0,3.0,62,0.00,,,0.00,meteohub,2013-06-01 19:29:00,
2013-06-01 15:34:00,89.2,75.0,29.98,East,85,0.0,3.0,63,0.00,,,0.00,meteohub,2013-06-01 19:34:00,
2013-06-01 15:39:00,89.4,74.1,29.98,East,85,1.0,3.0,61,0.00,,,0.00,meteohub,2013-06-01 19:39:00,
2013-06-01 15:44:00,89.2,74.5,29.98,East,85,1.0,3.0,62,0.00,,,0.00,meteohub,2013-06-01 19:44:00,
2013-06-01 15:49:00,88.9,74.1,29.98,East,85,2.0,3.0,62,0.00,,,0.00,meteohub,2013-06-01 19:49:00,
2013-06-01 15:54:00,89.1,74.3,29.98,East,85,2.0,2.0,62,0.00,,,0.00,meteohub,2013-06-01 19:54:00,
2013-06-01 15:59:00,89.8,75.0,29.97,South,180,3.0,3.0,62,0.00,,,0.00,meteohub,2013-06-01 19:59:00,
2013-06-01 16:04:00,89.8,76.8,29.97,West,277,2.0,5.0,66,0.00,,,0.00,meteohub,2013-06-01 20:04:00,
2013-06-01 16:09:00,88.0,75.6,29.97,WNW,295,6.0,9.0,67,0.00,,,0.00,meteohub,2013-06-01 20:09:00,
2013-06-01 16:15:00,87.1,76.1,29.97,West,271,6.0,10.0,70,0.00,,,0.00,meteohub,2013-06-01 20:15:00,
2013-06-01 16:20:00,87.3,75.9,29.96,WNW,287,4.0,10.0,69,0.00,,,0.00,meteohub,2013-06-01 20:20:00,
2013-06-01 16:25:00,88.3,76.8,29.96,WNW,291,5.0,10.0,69,0.00,,,0.00,meteohub,2013-06-01 20:25:00,
2013-06-01 16:30:00,88.7,76.3,29.96,NW,304,4.0,10.0,67,0.00,,,0.00,meteohub,2013-06-01 20:30:00,
2013-06-01 16:35:00,88.2,76.3,29.96,WNW,300,2.0,10.0,68,0.00,,,0.00,meteohub,2013-06-01 20:35:00,
2013-06-01 16:40:00,88.2,76.3,29.96,WNW,298,4.0,10.0,68,0.00,,,0.00,meteohub,2013-06-01 20:40:00,
2013-06-01 16:45:00,87.3,75.9,29.96,West,269,3.0,10.0,69,0.00,,,0.00,meteohub,2013-06-01 20:45:00,
2013-06-01 16:50:00,86.7,75.7,29.96,WNW,289,6.0,9.0,70,0.00,,,0.00,meteohub,2013-06-01 20:50:00,
2013-06-01 16:55:00,87.3,75.9,29.96,WNW,296,3.0,9.0,69,0.00,,,0.00,meteohub,2013-06-01 20:55:00,
2013-06-01 17:00:00,87.4,75.9,29.96,West,261,2.0,9.0,69,0.00,,,0.00,meteohub,2013-06-01 21:00:00,
2013-06-01 17:05:00,87.3,75.9,29.96,West,277,3.0,9.0,69,0.00,,,0.00,meteohub,2013-06-01 21:05:00,
2013-06-01 17:10:00,87.3,75.9,29.96,WNW,298,4.0,9.0,69,0.00,,,0.00,meteohub,2013-06-01 21:10:00,
2013-06-01 17:15:00,87.1,76.1,29.96,NW,309,4.0,9.0,70,0.00,,,0.00,meteohub,2013-06-01 21:15:00,
2013-06-01 17:21:00,86.5,75.6,29.96,NW,307,5.0,9.0,70,0.00,,,0.00,meteohub,2013-06-01 21:21:00,
2013-06-01 17:26:00,86.0,75.6,29.96,WNW,294,3.0,9.0,71,0.00,,,0.00,meteohub,2013-06-01 21:26:00,
2013-06-01 17:31:00,86.4,75.9,29.96,WNW,297,3.0,8.0,71,0.00,,,0.00,meteohub,2013-06-01 21:31:00,
2013-06-01 17:36:00,86.5,75.9,29.96,NW,321,3.0,9.0,71,0.00,,,0.00,meteohub,2013-06-01 21:36:00,
2013-06-01 17:41:00,86.7,76.1,29.96,WNW,301,6.0,9.0,71,0.00,,,0.00,meteohub,2013-06-01 21:41:00,
2013-06-01 17:46:00,86.4,75.9,29.96,West,278,5.0,9.0,71,0.00,,,0.00,meteohub,2013-06-01 21:46:00,
2013-06-01 17:51:00,85.6,75.2,29.96,WNW,284,4.0,9.0,71,0.00,,,0.00,meteohub,2013-06-01 21:51:00,
2013-06-01 17:56:00,84.9,75.2,29.97,WNW,298,1.0,8.0,73,0.00,,,0.00,meteohub,2013-06-01 21:56:00,
2013-06-01 18:01:00,84.7,75.2,29.97,WNW,297,4.0,8.0,73,0.00,,,0.00,meteohub,2013-06-01 22:01:00,
2013-06-01 18:06:00,84.7,75.6,29.97,NW,310,2.0,8.0,74,0.00,,,0.00,meteohub,2013-06-01 22:06:00,
2013-06-01 18:11:00,84.4,75.2,29.97,NW,307,6.0,8.0,74,0.00,,,0.00,meteohub,2013-06-01 22:11:00,
2013-06-01 18:17:00,84.0,75.2,29.98,WNW,301,2.0,9.0,75,0.00,,,0.00,meteohub,2013-06-01 22:17:00,
2013-06-01 18:22:00,84.0,74.8,29.98,WNW,300,4.0,9.0,74,0.00,,,0.00,meteohub,2013-06-01 22:22:00,
2013-06-01 18:27:00,82.9,73.4,29.98,NW,304,2.0,10.0,73,0.00,,,0.00,meteohub,2013-06-01 22:27:00,
2013-06-01 18:32:00,81.1,72.1,29.97,NW,308,10.0,10.0,74,0.00,,,0.00,meteohub,2013-06-01 22:32:00,
2013-06-01 18:37:00,79.3,71.4,29.98,WNW,295,6.0,12.0,77,0.00,,,0.00,meteohub,2013-06-01 22:37:00,
2013-06-01 18:42:00,79.0,72.0,29.99,WNW,296,0.0,12.0,79,0.00,,,0.00,meteohub,2013-06-01 22:42:00,
2013-06-01 18:47:00,79.2,72.9,29.99,ESE,103,4.0,12.0,81,0.00,,,0.00,meteohub,2013-06-01 22:47:00,
2013-06-01 18:52:00,79.0,72.7,29.98,West,262,7.0,9.0,81,0.00,,,0.00,meteohub,2013-06-01 22:52:00,
2013-06-01 18:57:00,78.8,71.8,29.99,South,182,4.0,9.0,79,0.00,,,0.00,meteohub,2013-06-01 22:57:00,
2013-06-01 19:02:00,78.4,71.8,29.99,South,181,4.0,12.0,80,0.00,,,0.00,meteohub,2013-06-01 23:02:00,
2013-06-01 19:07:00,78.3,72.0,29.98,SW,236,4.0,12.0,81,0.00,,,0.00,meteohub,2013-06-01 23:07:00,
2013-06-01 19:12:00,78.1,72.5,29.98,SW,221,3.0,12.0,83,0.00,,,0.00,meteohub,2013-06-01 23:12:00,
2013-06-01 19:17:00,77.7,71.1,29.99,South,186,7.0,9.0,80,0.00,,,0.00,meteohub,2013-06-01 23:17:00,
2013-06-01 19:22:00,77.7,71.1,29.99,SSW,193,2.0,9.0,80,0.00,,,0.00,meteohub,2013-06-01 23:22:00,
2013-06-01 19:27:00,78.3,72.0,29.99,SSW,193,0.0,8.0,81,0.00,,,0.00,meteohub,2013-06-01 23:27:00,
2013-06-01 19:32:00,78.6,71.6,29.99,SSW,193,0.0,8.0,79,0.00,,,0.00,meteohub,2013-06-01 23:32:00,
2013-06-01 19:37:00,78.6,71.2,29.99,SSW,193,0.0,5.0,78,0.00,,,0.00,meteohub,2013-06-01 23:37:00,
2013-06-01 19:42:00,78.6,71.6,29.99,SSW,193,0.0,0.0,79,0.00,,,0.00,meteohub,2013-06-01 23:42:00,
2013-06-01 19:47:00,78.6,71.6,29.99,South,186,0.0,2.0,79,0.00,,,0.00,meteohub,2013-06-01 23:47:00,
2013-06-01 19:52:00,79.0,72.0,29.99,South,186,0.0,3.0,79,0.00,,,0.00,meteohub,2013-06-01 23:52:00,
2013-06-01 19:57:00,79.2,72.5,29.99,SE,134,1.0,3.0,80,0.00,,,0.00,meteohub,2013-06-01 23:57:00,
2013-06-01 20:02:00,79.0,72.7,29.99,East,97,5.0,5.0,81,0.00,,,0.00,meteohub,2013-06-02 00:02:00,
2013-06-01 20:07:00,79.0,73.0,29.99,East,95,2.0,9.0,82,0.00,,,0.00,meteohub,2013-06-02 00:07:00,
2013-06-01 20:12:00,78.6,72.7,29.99,East,95,0.0,9.0,82,0.00,,,0.00,meteohub,2013-06-02 00:12:00,
2013-06-01 20:17:00,78.6,73.0,29.99,East,95,0.0,9.0,83,0.00,,,0.00,meteohub,2013-06-02 00:17:00,
2013-06-01 20:22:00,78.4,72.9,29.99,East,95,0.0,3.0,83,0.00,,,0.00,meteohub,2013-06-02 00:22:00,
2013-06-01 20:27:00,78.6,73.4,29.99,East,95,0.0,0.0,84,0.00,,,0.00,meteohub,2013-06-02 00:27:00,
2013-06-01 20:32:00,78.6,73.8,30.00,East,95,0.0,0.0,85,0.00,,,0.00,meteohub,2013-06-02 00:32:00,
2013-06-01 20:37:00,78.4,73.6,30.00,East,95,0.0,2.0,85,0.00,,,0.00,meteohub,2013-06-02 00:37:00,
2013-06-01 20:42:00,78.3,73.8,30.00,East,92,0.0,3.0,86,0.00,,,0.00,meteohub,2013-06-02 00:42:00,
2013-06-01 20:47:00,78.1,73.9,30.00,ENE,65,3.0,9.0,87,0.00,,,0.00,meteohub,2013-06-02 00:47:00,
2013-06-01 20:52:00,77.7,73.9,30.01,East,93,7.0,10.0,88,0.00,,,0.00,meteohub,2013-06-02 00:52:00,
2013-06-01 20:57:00,77.4,73.9,30.01,East,92,11.0,14.0,89,0.01,,,0.01,meteohub,2013-06-02 00:57:00,
2013-06-01 21:02:00,76.6,73.2,30.01,ENE,69,4.0,16.0,89,0.04,,,0.04,meteohub,2013-06-02 01:02:00,
2013-06-01 21:07:00,75.9,72.5,30.02,ENE,77,7.0,16.0,89,0.06,,,0.06,meteohub,2013-06-02 01:07:00,
2013-06-01 21:12:00,76.3,73.4,30.03,East,91,6.0,13.0,91,0.10,,,0.10,meteohub,2013-06-02 01:12:00,
2013-06-01 21:17:00,75.9,73.0,30.03,East,88,2.0,13.0,91,0.16,,,0.16,meteohub,2013-06-02 01:17:00,
2013-06-01 21:22:00,75.9,73.0,30.04,South,172,7.0,10.0,91,0.20,,,0.20,meteohub,2013-06-02 01:22:00,
2013-06-01 21:27:00,75.4,72.5,30.03,South,178,0.0,10.0,91,0.28,,,0.28,meteohub,2013-06-02 01:27:00,
2013-06-01 21:32:00,75.6,73.0,30.03,ESE,103,3.0,10.0,92,0.37,,,0.37,meteohub,2013-06-02 01:32:00,
2013-06-01 21:37:00,75.7,73.2,30.02,ESE,104,8.0,11.0,92,0.42,,,0.42,meteohub,2013-06-02 01:37:00,
2013-06-01 21:42:00,75.6,73.0,30.02,East,93,7.0,14.0,92,0.52,,,0.52,meteohub,2013-06-02 01:42:00,
2013-06-01 21:47:00,74.7,71.8,30.01,East,82,13.0,14.0,91,0.62,,,0.62,meteohub,2013-06-02 01:47:00,
2013-06-01 21:52:00,75.4,72.9,30.01,SSE,154,4.0,19.0,92,0.66,,,0.66,meteohub,2013-06-02 01:52:00,
2013-06-01 21:57:00,74.8,72.3,30.02,ESE,114,4.0,19.0,92,0.73,,,0.75,meteohub,2013-06-02 01:57:00,
2013-06-01 22:02:00,75.4,72.9,30.02,SSE,152,5.0,19.0,92,0.78,,,0.83,meteohub,2013-06-02 02:02:00,
2013-06-01 22:07:00,75.6,73.0,30.01,SE,144,3.0,13.0,92,0.79,,,0.87,meteohub,2013-06-02 02:07:00,
2013-06-01 22:12:00,75.6,73.0,30.01,ESE,119,5.0,12.0,92,0.82,,,0.94,meteohub,2013-06-02 02:12:00,
2013-06-01 22:17:00,75.2,72.7,30.01,East,95,11.0,11.0,92,0.84,,,1.01,meteohub,2013-06-02 02:17:00,
2013-06-01 22:22:00,75.2,72.7,30.01,ESE,108,14.0,14.0,92,0.80,,,1.04,meteohub,2013-06-02 02:22:00,
2013-06-01 22:27:00,75.6,73.0,30.00,ESE,103,10.0,18.0,92,0.80,,,1.11,meteohub,2013-06-02 02:27:00,
2013-06-01 22:32:00,75.7,73.6,30.00,East,98,14.0,18.0,93,0.77,,,1.14,meteohub,2013-06-02 02:32:00,
2013-06-01 22:37:00,75.7,73.6,30.00,ENE,70,7.0,18.0,93,0.72,,,1.19,meteohub,2013-06-02 02:37:00,
2013-06-01 22:42:00,75.7,73.6,30.00,SE,126,6.0,18.0,93,0.69,,,1.24,meteohub,2013-06-02 02:42:00,
2013-06-01 22:47:00,75.9,73.8,30.01,East,94,7.0,18.0,93,0.64,,,1.26,meteohub,2013-06-02 02:47:00,
2013-06-01 22:52:00,75.9,73.8,30.00,SSE,156,5.0,16.0,93,0.60,,,1.30,meteohub,2013-06-02 02:52:00,
2013-06-01 22:57:00,75.7,73.6,30.00,South,180,8.0,14.0,93,0.56,,,1.33,meteohub,2013-06-02 02:57:00,
2013-06-01 23:02:00,75.7,73.6,30.00,SSE,163,6.0,14.0,93,0.50,,,1.34,meteohub,2013-06-02 03:02:00,
2013-06-01 23:07:00,75.9,73.8,30.00,South,178,4.0,11.0,93,0.46,,,1.36,meteohub,2013-06-02 03:07:00,
2013-06-01 23:12:00,75.9,73.8,30.00,South,169,3.0,11.0,93,0.41,,,1.37,meteohub,2013-06-02 03:12:00,
2013-06-01 23:17:00,75.9,73.8,30.00,ESE,111,1.0,9.0,93,0.35,,,1.37,meteohub,2013-06-02 03:17:00,
2013-06-01 23:23:00,75.7,73.6,29.99,South,172,4.0,7.0,93,0.30,,,1.37,meteohub,2013-06-02 03:23:00,
2013-06-01 23:28:00,75.7,73.6,29.99,South,176,4.0,9.0,93,0.25,,,1.37,meteohub,2013-06-02 03:28:00,
2013-06-01 23:33:00,75.7,73.2,29.98,South,185,5.0,9.0,92,0.21,,,1.37,meteohub,2013-06-02 03:33:00,
2013-06-01 23:38:00,75.6,73.0,29.99,South,176,4.0,9.0,92,0.16,,,1.37,meteohub,2013-06-02 03:38:00,
2013-06-01 23:44:00,75.7,73.6,30.00,SE,140,3.0,9.0,93,0.13,,,1.37,meteohub,2013-06-02 03:44:00,
2013-06-01 23:49:00,75.6,73.0,30.00,SE,134,0.0,9.0,92,0.09,,,1.37,meteohub,2013-06-02 03:49:00,
2013-06-01 23:54:00,75.4,72.9,30.00,SE,134,2.0,7.0,92,0.06,,,1.37,meteohub,2013-06-02 03:54:00,
2013-06-01 23:59:00,75.4,72.9,30.01,SE,133,2.0,5.0,92,0.04,,,1.37,meteohub,2013-06-02 03:59:00,